Afonso Bezerra, Brazil
Current Conditions -  °F | °C
As of 9:00 PM on Tuesday 25 Nov 2014 (Local Time) from SBNT Reporting Station
Scattered Clouds Scattered Clouds  
Wind Chill: 79°   Ceiling: Unl
Heat Index: 81°   Visibility: 6mi
Dew Point: 70°   Wind: 15mph
Humidity: 74%   Direction: 120°ESE
Pressure: 29.91"   Gusts: NA
Location:  5.5°S, 36.51°W
Report Text: SBNT 260000Z 12013KT 9999 SCT021 26/21 Q1013
Loading
Personal Weather Stations






























Interactive Weather Map New forecast layout! Learn more

10-Day Weather Forecast

Advertisements
Track Severe Weather on mobile